Palma De Mallorca, Spain

7:34 PM CEST on September 04, 2015 (GMT +0200)
Ciudad Jardin | | Change Station
CLOSE
Current Station
Personal Weather Station
Location: Palma De Mallorca, ILLES BALEARS
Elevation: 20 ft
Nearby Weather Stations

Elev 20 ft 39.55 °N, 2.69 °E | Updated 8 seconds ago

Thunderstorms and Rain
Thunderstorm Rain
69.2 °F
Feels Like 69.2 °F
N
13.8
Wind Variable Wind from NE
Gusts 13.8 mph

Today
High -- | Low -- °F
--% Chance of Precip.
Yesterday
High -- | Low -- °F
Precip. -- in
7:19 AM 8:16 PM
Waning Gibbous, 57% visible
Pressure 29.95 in
Visibility 0.6 miles
Clouds Few 800 ft
Mostly Cloudy 1000 ft
Dew Point 67 °F
Humidity 93%
Rainfall 2.95 in
Snow Depth Not available.
UV 0 out of 12
Pollen Not available.
Air Quality Not available.
Flu Activity Not available.
SPECI LEPA 041718Z 04021G35KT 1000 R24L/0900N R06L/P2000 R06R/1200U TSRA FEW008 BKN010CB 20/20 Q1014 NOSIG
Pressure 29.95 in
Visibility 0.6 miles
Clouds Few 800 ft
Mostly Cloudy 1000 ft
Dew Point 67 °F
Humidity 93%
Rainfall 2.95 in
Snow Depth Not available.
UV 0 out of 12
Pollen Not available.
Air Quality Not available.
Flu Activity Not available.
SPECI LEPA 041718Z 04021G35KT 1000 R24L/0900N R06L/P2000 R06R/1200U TSRA FEW008 BKN010CB 20/20 Q1014 NOSIG

10-Day Weather Forecast

×

Almanac

Astronomy

Sep. 04, 2015 Rise Set
Actual Time
Civil Twilight
Nautical Twilight
Astronomical Twilight
Moon
Length of Visible Light
Length of Day
Tomorrow will be .
, % of the Moon is Illuminated

Today's Extremes

Country Highs Country Lows

Community

WunderPhotos

Upload Photos

1,852,244 photos uploaded!

WunderBlogs® & News

Nearby

Air Quality

  Air Quality AQ Index Pollutant
Not available.

Snow Depth

Station Depth Elevation

Earthquake Activity

City Distance Mag. Time & Date
Minimum magnitude displayed is 2.5.

Coastal Water Temperatures

Place Temperature

Stations

Nearby Weather Stations

Station Location Temp. Windchill Dew Point Humidity Wind Precip. Elev Updated Type